TAF Text Data
IDs:
Format:
Raw Decoded Include METAR

Data at: 2159 UTC 01 Oct 2022

WMKK 012130Z VRB02KT 9000 FEW010 24/23 Q1007 NOSIG

TAF WMKK 011700Z 0118/0300 VRB02KT 8000 RA FEW008 SCT030
  BECMG 0122/0200 30006KT 9999 FEW018
  TEMPO 0213/0217 VRB02KT 5000 TSRA FEW008 FEW017CB